Terminal Aerodrome Forecast
Issued by NWS

Home | Current Version | Previous Version | Text Only | Print | Product List | Glossary On
Versions: 1 2 3 4 5 6 7 8 9 10 11 12 13 14 15 16 17
000
FTUS43 KICT 042023 AAB
TAFSLN
TAF AMD
KSLN 042023Z 0420/0518 16010KT P6SM VCTS SCT060CB BKN120
      TEMPO 0421/0424 VRB20G35KT 3SM +TSRA OVC040CB
     FM050000 16009KT P6SM VCTS SCT050CB OVC100
     FM051400 16013G19KT P6SM SCT035 BKN110=

USA.gov is the U.S. government's official web portal to all federal, state and local government web resources and services.